createdAt,value
2023-01-04T00:01:22.571Z,101207.63
2023-01-04T00:03:49.946Z,101221.72
2023-01-04T00:06:18.648Z,101235.31
2023-01-04T00:08:45.920Z,101224.56
2023-01-04T00:11:17.969Z,101212.09
2023-01-04T00:13:46.554Z,101207.38
2023-01-04T00:16:17.958Z,101209.84
2023-01-04T00:18:45.931Z,101209.31
2023-01-04T00:21:14.864Z,101210.50
2023-01-04T00:23:44.121Z,101213.63
2023-01-04T00:26:14.375Z,101209.19
2023-01-04T00:28:44.805Z,101200.31
2023-01-04T00:31:16.374Z,101212.63
2023-01-04T00:33:43.643Z,101209.03
2023-01-04T00:36:13.358Z,101212.16
2023-01-04T00:38:42.232Z,101224.59
2023-01-04T00:41:23.198Z,101224.72
2023-01-04T00:43:55.444Z,101218.78
2023-01-04T00:46:23.033Z,101229.94
2023-01-04T00:48:51.762Z,101230.34
2023-01-04T00:51:21.559Z,101234.53
2023-01-04T00:53:48.959Z,101227.81
2023-01-04T00:56:16.479Z,101238.72
2023-01-04T00:58:43.707Z,101232.59
2023-01-04T01:01:11.592Z,101228.53
2023-01-04T01:03:39.865Z,101224.50
2023-01-04T01:06:08.446Z,101233.13
2023-01-04T01:08:35.988Z,101219.25
2023-01-04T01:11:09.025Z,101221.81
2023-01-04T01:13:38.067Z,101222.22
2023-01-04T01:16:07.569Z,101224.94
2023-01-04T01:18:39.555Z,101228.16
2023-01-04T01:21:09.796Z,101230.59
2023-01-04T01:23:37.125Z,101217.28
2023-01-04T01:26:06.830Z,101218.06
2023-01-04T01:28:36.083Z,101213.75
2023-01-04T01:31:08.867Z,101207.25
2023-01-04T01:33:40.776Z,101198.63
2023-01-04T01:36:09.799Z,101190.63
2023-01-04T01:38:38.419Z,101192.19
2023-01-04T01:41:07.715Z,101188.22
2023-01-04T01:43:53.463Z,101191.66
2023-01-04T01:46:32.950Z,101184.78
2023-01-04T01:49:04.379Z,101182.00
2023-01-04T01:51:34.415Z,101199.78
2023-01-04T01:54:06.996Z,101202.94
2023-01-04T01:56:38.586Z,101187.38
2023-01-04T01:59:07.426Z,101187.72
2023-01-04T02:01:35.064Z,101182.88
2023-01-04T02:04:04.503Z,101176.56
2023-01-04T02:06:41.534Z,101184.97
2023-01-04T02:09:09.712Z,101180.50
2023-01-04T02:11:37.271Z,101177.78
2023-01-04T02:14:25.787Z,101174.88
2023-01-04T02:16:56.648Z,101175.06
2023-01-04T02:20:01.131Z,101164.88
2023-01-04T02:23:03.402Z,101167.13
2023-01-04T02:25:39.629Z,101159.69
2023-01-04T02:28:16.449Z,101164.88
2023-01-04T02:31:05.310Z,101165.28
2023-01-04T02:34:16.695Z,101159.53
2023-01-04T02:37:11.756Z,101154.53
2023-01-04T02:40:08.990Z,101143.56
2023-01-04T02:43:16.142Z,101143.97
2023-01-04T02:45:54.930Z,101141.81
2023-01-04T02:48:40.621Z,101128.63
2023-01-04T02:51:34.472Z,101145.50
2023-01-04T02:54:09.076Z,101141.47
2023-01-04T02:56:42.578Z,101160.84
2023-01-04T02:59:18.861Z,101152.59
2023-01-04T03:02:20.684Z,101158.06
2023-01-04T03:05:33.054Z,101152.16
2023-01-04T03:08:06.759Z,101154.41
2023-01-04T03:11:35.052Z,101144.84
2023-01-04T03:14:31.515Z,101146.75
2023-01-04T03:16:56.461Z,101152.56
2023-01-04T03:19:44.940Z,101144.81
2023-01-04T03:22:36.478Z,101130.75
2023-01-04T03:25:26.010Z,101133.13
2023-01-04T03:28:14.113Z,101134.34
2023-01-04T03:31:12.317Z,101135.03
2023-01-04T03:33:58.358Z,101118.34
2023-01-04T03:36:31.893Z,101121.91
2023-01-04T03:39:31.809Z,101111.59
2023-01-04T03:42:26.089Z,101116.88
2023-01-04T03:45:22.759Z,101108.09
2023-01-04T03:48:39.694Z,101098.22
2023-01-04T03:51:06.924Z,101096.25
2023-01-04T03:53:41.541Z,101091.63
2023-01-04T03:56:11.687Z,101075.53
2023-01-04T03:58:39.429Z,101077.00
2023-01-04T04:01:07.453Z,101072.88
2023-01-04T04:03:53.894Z,101047.25
2023-01-04T04:06:39.778Z,101056.16
2023-01-04T04:09:07.310Z,101035.31
2023-01-04T04:11:34.537Z,101029.63
2023-01-04T04:14:02.241Z,101023.38
2023-01-04T04:16:29.928Z,101022.41
2023-01-04T04:18:58.131Z,101022.81
2023-01-04T04:21:27.062Z,101022.94
2023-01-04T04:23:56.329Z,101014.06
2023-01-04T04:26:24.474Z,101016.22
2023-01-04T04:28:52.071Z,101004.44
2023-01-04T04:31:19.386Z,101003.22
2023-01-04T04:33:46.927Z,101002.91
2023-01-04T04:36:14.285Z,100998.34
2023-01-04T04:38:41.923Z,100986.47
2023-01-04T04:41:29.706Z,100981.47
2023-01-04T04:43:58.322Z,100985.75
2023-01-04T04:46:25.846Z,100977.06
2023-01-04T04:48:53.479Z,100983.13
2023-01-04T04:51:20.777Z,100979.31
2023-01-04T04:53:48.504Z,100974.84
2023-01-04T04:56:16.573Z,100973.25
2023-01-04T04:58:44.171Z,100972.13
2023-01-04T05:01:11.651Z,100968.16
2023-01-04T05:03:39.432Z,100957.44
2023-01-04T05:06:07.235Z,100950.50
2023-01-04T05:08:34.829Z,100946.03
2023-01-04T05:11:07.164Z,100949.16
2023-01-04T05:13:35.304Z,100955.06
2023-01-04T05:16:04.229Z,100953.47
2023-01-04T05:18:31.849Z,100948.25
2023-01-04T05:20:59.726Z,100949.69
2023-01-04T05:23:27.361Z,100945.25
2023-01-04T05:25:58.789Z,100949.03
2023-01-04T05:28:26.325Z,100942.94
2023-01-04T05:30:55.859Z,100940.63
2023-01-04T05:33:28.860Z,100937.75
2023-01-04T05:35:59.406Z,100928.81
2023-01-04T05:38:27.899Z,100918.00
2023-01-04T05:40:55.579Z,100909.72
2023-01-04T05:43:24.473Z,100906.59
2023-01-04T05:45:56.267Z,100896.41
2023-01-04T05:48:25.103Z,100890.94
2023-01-04T05:50:53.904Z,100883.47
2023-01-04T05:53:21.468Z,100884.72
2023-01-04T05:55:48.994Z,100872.41
2023-01-04T05:58:16.706Z,100870.75
2023-01-04T06:00:43.994Z,100877.50
2023-01-04T06:03:11.691Z,100877.16
2023-01-04T06:05:39.061Z,100860.44
2023-01-04T06:08:06.819Z,100861.09
2023-01-04T06:10:34.108Z,100871.00
2023-01-04T06:13:01.801Z,100861.50
2023-01-04T06:15:29.063Z,100860.38
2023-01-04T06:17:56.612Z,100852.72
2023-01-04T06:20:23.865Z,100855.13
2023-01-04T06:22:51.415Z,100834.34
2023-01-04T06:25:18.951Z,100845.13
2023-01-04T06:27:46.771Z,100840.47
2023-01-04T06:30:14.106Z,100827.72
2023-01-04T06:32:42.145Z,100828.97
2023-01-04T06:35:09.605Z,100812.91
2023-01-04T06:37:37.218Z,100810.03
2023-01-04T06:40:05.371Z,100809.97
2023-01-04T06:42:44.881Z,100813.94
2023-01-04T06:45:16.883Z,100810.94
2023-01-04T06:47:44.821Z,100806.25
2023-01-04T06:50:12.305Z,100797.75
2023-01-04T06:52:39.983Z,100799.06
2023-01-04T06:55:09.624Z,100783.97
2023-01-04T06:57:37.651Z,100778.06
2023-01-04T07:00:08.380Z,100779.88
2023-01-04T07:02:36.349Z,100744.91
2023-01-04T07:05:04.291Z,100756.97
2023-01-04T07:07:33.204Z,100753.28
2023-01-04T07:10:05.437Z,100747.03
2023-01-04T07:12:38.440Z,100745.66
2023-01-04T07:15:38.251Z,100745.63
2023-01-04T07:17:54.138Z,100743.38
2023-01-04T07:20:21.535Z,100742.41
2023-01-04T07:22:49.177Z,100733.75
2023-01-04T07:25:16.567Z,100728.31
2023-01-04T07:27:44.123Z,100729.22
2023-01-04T07:30:12.113Z,100726.84
2023-01-04T07:32:39.668Z,100732.28
2023-01-04T07:35:07.389Z,100727.16
2023-01-04T07:37:35.217Z,100719.63
2023-01-04T07:40:02.522Z,100715.34
2023-01-04T07:42:30.508Z,100710.06
2023-01-04T07:44:57.761Z,100716.06
2023-01-04T07:47:25.367Z,100703.47
2023-01-04T07:49:52.632Z,100694.72
2023-01-04T07:52:20.276Z,100679.00
2023-01-04T07:54:47.927Z,100673.25
2023-01-04T07:57:15.736Z,100665.81
2023-01-04T07:59:43.091Z,100657.16
2023-01-04T08:02:12.337Z,100658.69
2023-01-04T08:04:39.767Z,100656.06
2023-01-04T08:07:07.413Z,100643.66
2023-01-04T08:09:34.622Z,100629.66
2023-01-04T08:12:02.749Z,100622.44
2023-01-04T08:14:30.060Z,100622.44
2023-01-04T08:16:57.645Z,100613.47
2023-01-04T08:19:24.957Z,100609.00
2023-01-04T08:21:52.554Z,100598.81
2023-01-04T08:24:20.637Z,100599.50
2023-01-04T08:26:48.379Z,100598.22
2023-01-04T08:29:15.705Z,100595.88
2023-01-04T08:31:43.344Z,100588.16
2023-01-04T08:34:10.781Z,100598.13
2023-01-04T08:36:48.432Z,100595.31
2023-01-04T08:39:15.800Z,100575.09
2023-01-04T08:41:58.858Z,100565.88
2023-01-04T08:44:30.179Z,100566.81
2023-01-04T08:46:59.056Z,100578.53
2023-01-04T08:49:26.738Z,100560.28
2023-01-04T08:51:54.413Z,100543.94
2023-01-04T08:54:22.963Z,100541.28
2023-01-04T08:56:50.891Z,100546.13
2023-01-04T08:59:18.177Z,100537.06
2023-01-04T09:01:46.269Z,100527.19
2023-01-04T09:04:13.812Z,100511.97
2023-01-04T09:06:42.702Z,100510.13
2023-01-04T09:09:10.101Z,100506.88
2023-01-04T09:11:38.605Z,100495.09
2023-01-04T09:14:09.392Z,100495.66
2023-01-04T09:16:38.495Z,100481.44
2023-01-04T09:19:06.389Z,100481.91
2023-01-04T09:21:34.044Z,100480.25
2023-01-04T09:24:01.410Z,100473.59
2023-01-04T09:26:29.037Z,100465.03
2023-01-04T09:28:57.431Z,100463.50
2023-01-04T09:31:28.253Z,100454.94
2023-01-04T09:34:14.163Z,100442.94
2023-01-04T09:36:42.851Z,100438.94
2023-01-04T09:39:16.715Z,100440.00
2023-01-04T09:41:55.716Z,100425.50
2023-01-04T09:47:34.952Z,100400.94
2023-01-04T09:50:14.661Z,100391.97
2023-01-04T09:53:06.322Z,100378.13
2023-01-04T09:55:45.856Z,100370.03
2023-01-04T09:58:23.120Z,100344.53
2023-01-04T10:01:22.537Z,100343.00
2023-01-04T10:04:13.935Z,100322.16
2023-01-04T10:06:41.440Z,100313.09
2023-01-04T10:09:17.169Z,100305.81
2023-01-04T10:11:53.336Z,100290.84
2023-01-04T10:14:51.159Z,100294.28
2023-01-04T10:17:44.572Z,100292.66
2023-01-04T10:23:43.007Z,100271.44
2023-01-04T10:26:13.248Z,100248.28
2023-01-04T10:28:43.438Z,100248.44
2023-01-04T10:31:39.780Z,100241.59
2023-01-04T10:34:23.986Z,100235.19
2023-01-04T10:36:53.918Z,100229.88
2023-01-04T10:39:32.063Z,100238.81
2023-01-04T10:42:12.351Z,100227.31
2023-01-04T10:45:18.595Z,100211.88
2023-01-04T10:48:05.941Z,100180.25
2023-01-04T10:50:55.467Z,100167.88
2023-01-04T10:53:37.898Z,100160.78
2023-01-04T10:56:25.071Z,100142.81
2023-01-04T10:59:22.685Z,100142.22
2023-01-04T11:02:11.313Z,100135.19
2023-01-04T11:04:51.432Z,100127.53
2023-01-04T11:07:39.448Z,100119.16
2023-01-04T11:10:15.027Z,100120.00
2023-01-04T11:12:42.607Z,100097.13
2023-01-04T11:15:10.725Z,100100.59
2023-01-04T11:17:38.647Z,100095.41
2023-01-04T11:20:06.804Z,100064.66
2023-01-04T11:22:43.039Z,100055.06
2023-01-04T11:28:23.920Z,100029.06
2023-01-04T11:30:54.268Z,100029.81
2023-01-04T11:33:23.429Z,100001.78
2023-01-04T11:35:54.469Z,100005.09
2023-01-04T11:38:24.385Z,100001.97
2023-01-04T11:40:59.213Z,100010.00
2023-01-04T11:43:29.776Z,100001.22
2023-01-04T11:46:21.719Z,100005.09
2023-01-04T11:48:49.107Z,99991.09
2023-01-04T11:51:25.507Z,99977.81
2023-01-04T11:54:05.652Z,99964.47
2023-01-04T11:56:35.772Z,99958.38
2023-01-04T11:59:08.978Z,99932.09
2023-01-04T12:01:43.009Z,99936.28
2023-01-04T12:04:35.676Z,99924.63
2023-01-04T12:07:11.523Z,99916.78
2023-01-04T12:09:38.815Z,99902.31
2023-01-04T12:12:12.391Z,99893.34
2023-01-04T12:14:49.514Z,99865.75
2023-01-04T12:17:23.528Z,99869.81
2023-01-04T12:19:54.700Z,99854.94
2023-01-04T12:22:31.461Z,99843.38
2023-01-04T12:25:01.013Z,99822.84
2023-01-04T12:27:29.322Z,99822.22
2023-01-04T12:30:01.021Z,99809.94
2023-01-04T12:32:28.645Z,99798.78
2023-01-04T12:34:56.645Z,99786.59
2023-01-04T12:37:46.118Z,99772.16
2023-01-04T12:40:47.897Z,99770.09
2023-01-04T12:43:15.610Z,99769.31
2023-01-04T12:45:44.870Z,99742.06
2023-01-04T12:48:45.978Z,99745.78
2023-01-04T12:51:32.356Z,99723.41
2023-01-04T12:54:04.368Z,99709.94
2023-01-04T12:57:09.156Z,99704.72
2023-01-04T12:59:53.298Z,99689.34
2023-01-04T13:02:25.064Z,99684.16
2023-01-04T13:05:35.273Z,99661.25
2023-01-04T13:07:55.020Z,99655.84
2023-01-04T13:10:42.143Z,99628.16
2023-01-04T13:13:09.494Z,99634.28
2023-01-04T13:15:52.427Z,99623.03
2023-01-04T13:18:36.818Z,99597.47
2023-01-04T13:21:15.682Z,99590.44
2023-01-04T13:23:53.051Z,99592.34
2023-01-04T13:26:33.288Z,99578.88
2023-01-04T13:29:29.948Z,99569.63
2023-01-04T13:32:02.527Z,99574.38
2023-01-04T13:34:37.307Z,99574.44
2023-01-04T13:37:15.191Z,99544.81
2023-01-04T13:39:49.898Z,99543.97
2023-01-04T13:42:30.928Z,99525.78
2023-01-04T13:45:28.632Z,99532.28
2023-01-04T13:48:00.082Z,99533.09
2023-01-04T13:50:33.419Z,99519.84
2023-01-04T13:53:07.405Z,99516.34
2023-01-04T13:55:38.330Z,99520.81
2023-01-04T13:58:17.075Z,99500.44
2023-01-04T14:00:54.625Z,99506.59
2023-01-04T14:03:45.204Z,99501.50
2023-01-04T14:06:17.831Z,99498.31
2023-01-04T14:09:07.117Z,99467.38
2023-01-04T14:12:14.300Z,99468.97
2023-01-04T14:14:58.921Z,99466.25
2023-01-04T14:17:34.955Z,99460.50
2023-01-04T14:20:06.617Z,99423.78
2023-01-04T14:22:36.036Z,99430.31
2023-01-04T14:25:31.280Z,99437.25
2023-01-04T14:28:24.691Z,99433.84
2023-01-04T14:31:14.100Z,99422.13
2023-01-04T14:33:46.671Z,99408.00
2023-01-04T14:36:30.180Z,99412.69
2023-01-04T14:39:00.358Z,99383.69
2023-01-04T14:41:35.469Z,99395.56
2023-01-04T14:44:13.995Z,99377.22
2023-01-04T14:46:43.775Z,99364.78
2023-01-04T14:49:11.220Z,99358.72
2023-01-04T14:51:44.233Z,99352.31
2023-01-04T14:54:17.485Z,99341.69
2023-01-04T14:56:48.376Z,99345.31
2023-01-04T14:59:15.993Z,99333.94
2023-01-04T15:01:43.669Z,99317.19
2023-01-04T15:04:11.063Z,99304.38
2023-01-04T15:06:48.231Z,99311.94
2023-01-04T15:09:15.633Z,99300.94
2023-01-04T15:11:43.143Z,99299.72
2023-01-04T15:14:10.387Z,99302.22
2023-01-04T15:16:38.091Z,99300.06
2023-01-04T15:19:05.701Z,99288.13
2023-01-04T15:21:40.381Z,99280.09
2023-01-04T15:24:09.373Z,99270.91
2023-01-04T15:26:38.654Z,99260.34
2023-01-04T15:29:06.918Z,99261.69
2023-01-04T15:31:39.513Z,99255.78
2023-01-04T15:34:09.316Z,99256.75
2023-01-04T15:36:39.357Z,99243.31
2023-01-04T15:39:07.563Z,99250.94
2023-01-04T15:41:54.073Z,99232.06
2023-01-04T15:44:21.365Z,99229.31
2023-01-04T15:46:51.079Z,99210.81
2023-01-04T15:49:18.502Z,99202.94
2023-01-04T15:51:46.816Z,99191.38
2023-01-04T15:54:14.288Z,99192.75
2023-01-04T15:56:41.871Z,99186.19
2023-01-04T15:59:09.207Z,99183.38
2023-01-04T16:01:36.871Z,99173.41
2023-01-04T16:04:06.501Z,99170.03
2023-01-04T16:06:34.171Z,99154.78
2023-01-04T16:09:02.074Z,99151.28
2023-01-04T16:11:30.019Z,99147.38
2023-01-04T16:13:57.833Z,99134.22
2023-01-04T16:16:30.428Z,99121.56
2023-01-04T16:18:58.193Z,99129.59
2023-01-04T16:21:28.624Z,99118.25
2023-01-04T16:24:05.575Z,99112.03
2023-01-04T16:26:37.098Z,99104.19
2023-01-04T16:29:04.966Z,99101.28
2023-01-04T16:31:37.516Z,99101.72
2023-01-04T16:34:06.383Z,99098.66
2023-01-04T16:36:33.580Z,99082.94
2023-01-04T16:39:01.690Z,99081.28
2023-01-04T16:41:29.483Z,99080.44
2023-01-04T16:44:01.060Z,99087.56
2023-01-04T16:46:33.221Z,99069.06
2023-01-04T16:49:10.264Z,99072.16
2023-01-04T16:51:39.640Z,99071.47
2023-01-04T16:54:10.786Z,99065.16
2023-01-04T16:56:39.236Z,99052.13
2023-01-04T16:59:08.294Z,99056.06
2023-01-04T17:01:40.911Z,99052.69
2023-01-04T17:04:15.604Z,99049.31
2023-01-04T17:06:45.426Z,99036.53
2023-01-04T17:09:15.617Z,99028.28
2023-01-04T17:12:46.252Z,99018.19
2023-01-04T17:14:44.684Z,99021.97
2023-01-04T17:17:11.913Z,99019.97
2023-01-04T17:19:39.514Z,99012.97
2023-01-04T17:22:06.955Z,99009.44
2023-01-04T17:24:34.681Z,99004.38
2023-01-04T17:27:01.923Z,99006.78
2023-01-04T17:29:29.645Z,98983.47
2023-01-04T17:31:57.055Z,98984.31
2023-01-04T17:34:24.622Z,98981.78
2023-01-04T17:36:51.875Z,98976.03
2023-01-04T17:39:21.057Z,98966.31
2023-01-04T17:41:48.565Z,98966.06
2023-01-04T17:44:16.250Z,98973.72
2023-01-04T17:46:43.479Z,98953.47
2023-01-04T17:49:31.474Z,98962.72
2023-01-04T17:51:59.154Z,98955.31
2023-01-04T17:54:27.102Z,98955.13
2023-01-04T17:56:54.539Z,98928.03
2023-01-04T17:59:22.083Z,98939.44
2023-01-04T18:01:49.376Z,98928.69
2023-01-04T18:04:17.193Z,98921.59
2023-01-04T18:06:44.527Z,98926.13
2023-01-04T18:09:15.494Z,98913.63
2023-01-04T18:11:46.064Z,98906.72
2023-01-04T18:14:14.645Z,98894.38
2023-01-04T18:16:57.879Z,98900.72
2023-01-04T18:19:29.197Z,98891.94
2023-01-04T18:21:57.194Z,98886.72
2023-01-04T18:24:41.731Z,98888.84
2023-01-04T18:27:22.667Z,98889.91
2023-01-04T18:29:52.537Z,98877.09
2023-01-04T18:32:20.715Z,98872.88
2023-01-04T18:34:48.354Z,98865.78
2023-01-04T18:37:16.632Z,98851.63
2023-01-04T18:39:44.450Z,98861.38
2023-01-04T18:42:11.680Z,98849.03
2023-01-04T18:44:44.100Z,98844.56
2023-01-04T18:47:15.625Z,98844.44
2023-01-04T18:49:43.181Z,98844.81
2023-01-04T18:52:10.421Z,98842.13
2023-01-04T18:54:37.923Z,98841.53
2023-01-04T18:57:05.331Z,98827.47
2023-01-04T18:59:33.125Z,98822.50
2023-01-04T19:02:03.636Z,98815.81
2023-01-04T19:04:34.252Z,98819.53
2023-01-04T19:07:02.348Z,98814.88
2023-01-04T19:09:30.674Z,98813.22
2023-01-04T19:11:58.040Z,98809.06
2023-01-04T19:14:25.597Z,98796.38
2023-01-04T19:16:55.643Z,98791.94
2023-01-04T19:19:23.305Z,98801.31
2023-01-04T19:21:50.558Z,98773.59
2023-01-04T19:24:18.152Z,98794.31
2023-01-04T19:26:45.407Z,98784.31
2023-01-04T19:29:12.937Z,98789.72
2023-01-04T19:31:40.186Z,98788.38
2023-01-04T19:34:10.092Z,98779.34
2023-01-04T19:36:37.639Z,98795.41
2023-01-04T19:39:09.546Z,98788.06
2023-01-04T19:41:38.156Z,98796.81
2023-01-04T19:44:08.491Z,98787.47
2023-01-04T19:46:38.477Z,98792.50
2023-01-04T19:49:14.162Z,98790.16
2023-01-04T19:51:44.532Z,98776.13
2023-01-04T19:54:12.525Z,98775.50
2023-01-04T19:56:40.070Z,98771.94
2023-01-04T19:59:08.007Z,98772.31
2023-01-04T20:01:36.047Z,98764.47
2023-01-04T20:04:04.437Z,98783.22
2023-01-04T20:06:32.862Z,98767.03
2023-01-04T20:09:00.539Z,98773.56
2023-01-04T20:11:27.840Z,98772.38
2023-01-04T20:13:55.358Z,98766.56
2023-01-04T20:16:22.712Z,98768.56
2023-01-04T20:18:50.342Z,98760.03
2023-01-04T20:21:17.549Z,98766.06
2023-01-04T20:23:45.067Z,98752.00
2023-01-04T20:26:17.573Z,98761.38
2023-01-04T20:28:46.140Z,98754.53
2023-01-04T20:31:16.610Z,98746.16
2023-01-04T20:33:45.056Z,98736.47
2023-01-04T20:36:19.432Z,98754.03
2023-01-04T20:38:48.236Z,98752.03
2023-01-04T20:41:18.585Z,98742.16
2023-01-04T20:43:48.297Z,98749.19
2023-01-04T20:46:21.341Z,98744.50
2023-01-04T20:48:49.305Z,98739.16
2023-01-04T20:51:19.311Z,98744.69
2023-01-04T20:53:47.632Z,98734.78
2023-01-04T20:56:20.185Z,98747.88
2023-01-04T20:58:48.795Z,98742.34
2023-01-04T21:01:17.713Z,98741.16
2023-01-04T21:03:45.890Z,98736.16
2023-01-04T21:06:15.328Z,98727.63
2023-01-04T21:08:43.982Z,98726.44
2023-01-04T21:11:12.861Z,98715.72
2023-01-04T21:13:41.087Z,98722.22
2023-01-04T21:16:09.326Z,98718.72
2023-01-04T21:18:37.579Z,98715.91
2023-01-04T21:21:06.963Z,98719.75
2023-01-04T21:23:34.773Z,98705.69
2023-01-04T21:26:09.419Z,98704.53
2023-01-04T21:28:37.111Z,98695.50
2023-01-04T21:31:17.471Z,98690.31
2023-01-04T21:33:46.311Z,98681.78
2023-01-04T21:36:15.317Z,98684.94
2023-01-04T21:38:43.307Z,98678.75
2023-01-04T21:41:13.071Z,98671.22
2023-01-04T21:43:42.236Z,98671.91
2023-01-04T21:46:15.067Z,98681.25
2023-01-04T21:48:44.724Z,98669.53
2023-01-04T21:51:13.005Z,98666.88
2023-01-04T21:53:42.013Z,98662.69
2023-01-04T21:56:15.508Z,98664.19
2023-01-04T21:58:44.004Z,98626.22
2023-01-04T22:01:19.708Z,98638.78
2023-01-04T22:03:47.437Z,98648.47
2023-01-04T22:06:15.542Z,98622.72
2023-01-04T22:08:43.983Z,98636.28
2023-01-04T22:11:12.402Z,98636.75
2023-01-04T22:13:40.066Z,98632.06
2023-01-04T22:16:11.166Z,98626.03
2023-01-04T22:18:39.278Z,98628.25
2023-01-04T22:21:11.163Z,98615.03
2023-01-04T22:23:38.807Z,98612.00
2023-01-04T22:26:06.528Z,98607.00
2023-01-04T22:28:37.031Z,98611.31
2023-01-04T22:31:11.472Z,98611.84
2023-01-04T22:33:40.209Z,98597.09
2023-01-04T22:36:22.396Z,98605.97
2023-01-04T22:38:52.457Z,98609.50
2023-01-04T22:41:21.559Z,98595.91
2023-01-04T22:44:01.003Z,98597.59
2023-01-04T22:46:29.324Z,98593.22
2023-01-04T22:48:57.748Z,98593.41
2023-01-04T22:51:27.756Z,98600.59
2023-01-04T22:53:57.313Z,98604.09
2023-01-04T22:56:25.754Z,98594.09
2023-01-04T22:58:55.902Z,98595.75
2023-01-04T23:01:27.390Z,98591.22
2023-01-04T23:03:55.851Z,98592.25
2023-01-04T23:06:24.945Z,98596.41
2023-01-04T23:08:57.722Z,98601.63
2023-01-04T23:11:25.742Z,98607.44
2023-01-04T23:13:53.646Z,98599.91
2023-01-04T23:16:24.818Z,98591.53
2023-01-04T23:18:55.647Z,98594.88
2023-01-04T23:21:23.178Z,98593.72
2023-01-04T23:23:51.389Z,98589.03
2023-01-04T23:26:21.710Z,98574.34
2023-01-04T23:28:49.810Z,98583.38
2023-01-04T23:31:20.488Z,98578.88
2023-01-04T23:33:51.646Z,98589.94
2023-01-04T23:36:21.560Z,98586.91
2023-01-04T23:38:51.484Z,98578.53
2023-01-04T23:41:19.663Z,98581.72
2023-01-04T23:43:47.723Z,98582.19
2023-01-04T23:46:17.223Z,98582.06
2023-01-04T23:48:45.100Z,98573.88
2023-01-04T23:51:13.169Z,98577.22
2023-01-04T23:53:40.806Z,98570.88
2023-01-04T23:56:14.657Z,98566.19
2023-01-04T23:58:42.393Z,98565.84
